createdAt,value
2022-11-25T00:01:54.510Z,47.42
2022-11-25T00:04:21.962Z,48.93
2022-11-25T00:06:49.084Z,49.13
2022-11-25T00:09:16.195Z,49.20
2022-11-25T00:11:43.540Z,47.51
2022-11-25T00:14:12.188Z,45.47
2022-11-25T00:16:42.591Z,46.63
2022-11-25T00:19:14.006Z,45.74
2022-11-25T00:21:41.132Z,45.51
2022-11-25T00:24:08.268Z,45.16
2022-11-25T00:26:38.567Z,44.81
2022-11-25T00:29:06.496Z,44.51
2022-11-25T00:31:36.705Z,43.86
2022-11-25T00:34:05.160Z,43.73
2022-11-25T00:36:33.037Z,44.05
2022-11-25T00:39:01.137Z,43.50
2022-11-25T00:41:47.338Z,43.83
2022-11-25T00:44:34.125Z,43.64
2022-11-25T00:47:02.611Z,43.29
2022-11-25T00:49:29.953Z,43.45
2022-11-25T00:51:57.132Z,43.11
2022-11-25T00:54:24.492Z,44.41
2022-11-25T00:56:51.712Z,43.24
2022-11-25T00:59:19.079Z,44.02
2022-11-25T01:01:46.556Z,43.92
2022-11-25T01:04:13.727Z,44.00
2022-11-25T01:06:40.840Z,43.42
2022-11-25T01:09:08.632Z,43.48
2022-11-25T01:11:35.765Z,43.21
2022-11-25T01:14:02.928Z,43.10
2022-11-25T01:16:30.619Z,43.11
2022-11-25T01:18:58.412Z,43.12
2022-11-25T01:21:27.570Z,43.52
2022-11-25T01:23:54.958Z,43.42
2022-11-25T01:26:22.853Z,43.62
2022-11-25T01:28:50.601Z,43.29
2022-11-25T01:31:19.434Z,46.07
2022-11-25T01:33:47.128Z,46.58
2022-11-25T01:36:16.891Z,45.29
2022-11-25T01:38:44.661Z,45.14
2022-11-25T01:41:12.979Z,44.84
2022-11-25T01:43:40.271Z,44.54
2022-11-25T01:46:09.447Z,45.21
2022-11-25T01:48:43.592Z,44.26
2022-11-25T01:51:22.291Z,44.06
2022-11-25T01:53:49.681Z,43.70
2022-11-25T01:56:17.292Z,43.60
2022-11-25T01:58:44.417Z,43.71
2022-11-25T02:01:11.610Z,44.23
2022-11-25T02:03:42.253Z,44.85
2022-11-25T02:06:29.562Z,46.63
2022-11-25T02:09:01.603Z,46.01
2022-11-25T02:11:28.762Z,49.51
2022-11-25T02:13:57.363Z,46.60
2022-11-25T02:16:26.662Z,45.85
2022-11-25T02:18:53.844Z,45.62
2022-11-25T02:21:26.260Z,45.18
2022-11-25T02:24:02.084Z,43.74
2022-11-25T02:26:29.629Z,43.49
2022-11-25T02:28:56.900Z,43.66
2022-11-25T02:31:24.322Z,43.28
2022-11-25T02:33:51.781Z,43.62
2022-11-25T02:36:20.319Z,44.13
2022-11-25T02:38:47.378Z,43.99
2022-11-25T02:41:18.540Z,44.13
2022-11-25T02:43:46.063Z,43.82
2022-11-25T02:46:20.279Z,46.54
2022-11-25T02:51:36.744Z,46.65
2022-11-25T02:54:04.233Z,47.12
2022-11-25T02:56:32.785Z,46.33
2022-11-25T02:59:00.131Z,45.51
2022-11-25T03:01:28.222Z,45.25
2022-11-25T03:03:55.359Z,45.10
2022-11-25T03:06:22.535Z,48.14
2022-11-25T03:08:50.744Z,49.71
2022-11-25T03:11:17.934Z,49.15
2022-11-25T03:13:45.046Z,48.75
2022-11-25T03:16:12.494Z,47.99
2022-11-25T03:18:39.643Z,48.35
2022-11-25T03:21:07.463Z,49.35
2022-11-25T03:23:38.178Z,51.50
2022-11-25T03:26:06.034Z,49.08
2022-11-25T03:28:33.514Z,48.67
2022-11-25T03:31:00.901Z,49.09
2022-11-25T03:33:29.649Z,49.28
2022-11-25T03:35:56.810Z,47.56
2022-11-25T03:38:25.288Z,50.12
2022-11-25T03:40:52.398Z,49.35
2022-11-25T03:43:19.526Z,49.12
2022-11-25T03:45:49.590Z,47.51
2022-11-25T03:48:17.210Z,49.32
2022-11-25T03:50:44.337Z,50.43
2022-11-25T03:53:11.718Z,51.70
2022-11-25T03:55:38.881Z,50.01
2022-11-25T03:58:06.131Z,49.13
2022-11-25T04:00:33.875Z,47.09
2022-11-25T04:03:02.495Z,46.03
2022-11-25T04:05:30.322Z,46.18
2022-11-25T04:07:58.389Z,45.52
2022-11-25T04:10:26.241Z,45.42
2022-11-25T04:12:53.954Z,45.12
2022-11-25T04:15:21.620Z,43.78
2022-11-25T04:17:49.214Z,44.57
2022-11-25T04:20:16.850Z,45.97
2022-11-25T04:22:44.913Z,47.24
2022-11-25T04:25:12.406Z,45.62
2022-11-25T04:27:39.603Z,45.32
2022-11-25T04:30:07.188Z,44.43
2022-11-25T04:32:36.474Z,44.34
2022-11-25T04:35:04.871Z,44.82
2022-11-25T04:37:32.510Z,44.27
2022-11-25T04:39:59.996Z,47.05
2022-11-25T04:42:33.256Z,45.03
2022-11-25T04:45:21.958Z,44.80
2022-11-25T04:47:48.253Z,44.38
2022-11-25T04:50:17.730Z,44.02
2022-11-25T04:52:47.819Z,43.55
2022-11-25T04:55:14.961Z,43.48
2022-11-25T04:57:46.113Z,43.09
2022-11-25T05:00:16.979Z,43.00
2022-11-25T05:02:44.655Z,43.28
2022-11-25T05:05:12.946Z,43.14
2022-11-25T05:07:40.268Z,43.07
2022-11-25T05:10:07.915Z,42.93
2022-11-25T05:12:36.389Z,42.96
2022-11-25T05:15:05.745Z,42.76
2022-11-25T05:17:34.007Z,42.92
2022-11-25T05:20:01.214Z,43.24
2022-11-25T05:22:29.883Z,42.98
2022-11-25T05:24:57.700Z,42.74
2022-11-25T05:27:25.879Z,42.39
2022-11-25T05:29:56.124Z,42.33
2022-11-25T05:32:24.024Z,42.33
2022-11-25T05:34:52.299Z,42.55
2022-11-25T05:37:24.131Z,42.74
2022-11-25T05:39:53.106Z,42.97
2022-11-25T05:42:21.140Z,42.81
2022-11-25T05:44:48.364Z,42.69
2022-11-25T05:47:17.908Z,42.73
2022-11-25T05:49:45.223Z,42.48
2022-11-25T05:52:12.570Z,42.07
2022-11-25T05:54:40.538Z,42.15
2022-11-25T05:57:07.708Z,41.75
2022-11-25T05:59:38.998Z,42.21
2022-11-25T06:02:06.561Z,42.45
2022-11-25T06:04:34.644Z,42.20
2022-11-25T06:07:04.621Z,42.40
2022-11-25T06:09:31.775Z,42.23
2022-11-25T06:11:59.239Z,42.10
2022-11-25T06:14:26.370Z,41.73
2022-11-25T06:16:53.555Z,41.82
2022-11-25T06:19:21.706Z,42.20
2022-11-25T06:21:48.826Z,42.18
2022-11-25T06:24:16.126Z,42.47
2022-11-25T06:26:44.349Z,42.61
2022-11-25T06:29:11.434Z,42.59
2022-11-25T06:31:39.296Z,42.41
2022-11-25T06:34:09.271Z,42.62
2022-11-25T06:36:36.578Z,42.51
2022-11-25T06:39:03.676Z,42.39
2022-11-25T06:41:31.053Z,42.64
2022-11-25T06:43:58.157Z,42.56
2022-11-25T06:46:25.710Z,42.56
2022-11-25T06:48:53.634Z,42.75
2022-11-25T06:51:20.853Z,42.69
2022-11-25T06:53:48.098Z,43.48
2022-11-25T06:56:16.848Z,43.44
2022-11-25T06:58:44.214Z,43.96
2022-11-25T07:01:15.330Z,43.52
2022-11-25T07:03:43.139Z,44.09
2022-11-25T07:06:11.588Z,43.13
2022-11-25T07:08:38.724Z,44.40
2022-11-25T07:11:07.071Z,44.39
2022-11-25T07:13:34.248Z,44.90
2022-11-25T07:16:04.272Z,45.37
2022-11-25T07:18:35.454Z,44.98
2022-11-25T07:21:07.046Z,44.97
2022-11-25T07:23:34.834Z,44.89
2022-11-25T07:26:02.921Z,48.35
2022-11-25T07:28:30.026Z,46.82
2022-11-25T07:33:51.621Z,47.04
2022-11-25T07:36:18.988Z,46.94
2022-11-25T07:38:46.869Z,46.44
2022-11-25T07:41:16.581Z,47.84
2022-11-25T07:43:44.258Z,49.26
2022-11-25T07:46:20.804Z,47.62
2022-11-25T07:48:51.862Z,48.76
2022-11-25T07:51:48.577Z,47.76
2022-11-25T07:54:16.056Z,48.34
2022-11-25T07:56:44.621Z,48.03
2022-11-25T07:59:12.891Z,48.04
2022-11-25T08:01:40.552Z,50.34
2022-11-25T08:04:08.688Z,49.87
2022-11-25T08:06:37.943Z,49.02
2022-11-25T08:09:05.074Z,49.21
2022-11-25T08:11:33.051Z,48.84
2022-11-25T08:14:00.266Z,49.61
2022-11-25T08:16:28.495Z,48.58
2022-11-25T08:18:56.117Z,49.00
2022-11-25T08:21:23.256Z,48.89
2022-11-25T08:23:52.513Z,48.95
2022-11-25T08:26:21.049Z,47.98
2022-11-25T08:28:48.240Z,48.92
2022-11-25T08:31:19.984Z,51.98
2022-11-25T08:33:47.566Z,50.16
2022-11-25T08:36:15.450Z,50.27
2022-11-25T08:38:42.900Z,49.25
2022-11-25T08:41:11.392Z,50.04
2022-11-25T08:43:38.761Z,49.82
2022-11-25T08:46:14.375Z,51.38
2022-11-25T08:48:41.852Z,53.71
2022-11-25T08:51:29.165Z,53.80
2022-11-25T08:53:56.682Z,52.60
2022-11-25T08:56:26.286Z,52.57
2022-11-25T08:58:54.487Z,51.01
2022-11-25T09:01:22.242Z,51.30
2022-11-25T09:03:50.760Z,51.85
2022-11-25T09:06:18.291Z,51.46
2022-11-25T09:08:45.802Z,52.04
2022-11-25T09:11:13.096Z,53.02
2022-11-25T09:13:40.381Z,51.50
2022-11-25T09:16:08.861Z,52.76
2022-11-25T09:18:37.168Z,51.34
2022-11-25T09:21:08.974Z,50.47
2022-11-25T09:23:36.780Z,53.85
2022-11-25T09:26:04.084Z,52.45
2022-11-25T09:28:31.248Z,52.41
2022-11-25T09:30:58.666Z,51.93
2022-11-25T09:33:25.777Z,52.27
2022-11-25T09:35:52.905Z,50.23
2022-11-25T09:38:20.273Z,51.51
2022-11-25T09:40:56.454Z,53.77
2022-11-25T09:43:54.343Z,52.98
2022-11-25T09:46:44.626Z,49.79
2022-11-25T09:49:12.029Z,49.66
2022-11-25T09:51:48.291Z,49.09
2022-11-25T09:54:17.336Z,50.67
2022-11-25T09:57:04.649Z,52.11
2022-11-25T09:59:32.973Z,51.76
2022-11-25T10:02:03.921Z,50.90
2022-11-25T10:04:33.461Z,52.14
2022-11-25T10:07:01.905Z,50.80
2022-11-25T10:09:30.227Z,50.02
2022-11-25T10:12:24.150Z,53.15
2022-11-25T10:14:56.102Z,54.28
2022-11-25T10:17:23.410Z,50.96
2022-11-25T10:20:00.891Z,51.12
2022-11-25T10:22:32.651Z,51.93
2022-11-25T10:25:00.798Z,51.03
2022-11-25T10:27:46.998Z,52.82
2022-11-25T10:30:20.010Z,50.31
2022-11-25T10:33:07.628Z,50.49
2022-11-25T10:35:35.951Z,49.70
2022-11-25T10:38:04.061Z,52.14
2022-11-25T10:40:31.233Z,53.49
2022-11-25T10:42:58.786Z,52.20
2022-11-25T10:45:30.120Z,50.68
2022-11-25T10:48:16.418Z,50.17
2022-11-25T10:51:04.014Z,52.20
2022-11-25T10:53:31.166Z,50.24
2022-11-25T10:56:06.106Z,51.52
2022-11-25T10:58:37.306Z,53.24
2022-11-25T11:01:15.267Z,54.82
2022-11-25T11:03:43.558Z,52.56
2022-11-25T11:06:29.524Z,50.90
2022-11-25T11:08:56.629Z,52.63
2022-11-25T11:11:24.188Z,52.45
2022-11-25T11:13:59.000Z,52.29
2022-11-25T11:16:30.733Z,53.92
2022-11-25T11:18:57.919Z,54.27
2022-11-25T11:21:35.034Z,56.66
2022-11-25T11:24:03.010Z,54.38
2022-11-25T11:26:31.436Z,51.60
2022-11-25T11:29:05.798Z,51.37
2022-11-25T11:31:36.785Z,49.88
2022-11-25T11:34:19.257Z,49.82
2022-11-25T11:36:56.578Z,50.25
2022-11-25T11:39:23.619Z,49.18
2022-11-25T11:41:50.942Z,50.47
2022-11-25T11:44:20.753Z,50.59
2022-11-25T11:47:00.925Z,50.10
2022-11-25T11:49:45.009Z,50.35
2022-11-25T11:52:24.579Z,49.71
2022-11-25T11:54:59.387Z,47.85
2022-11-25T11:57:30.374Z,47.21
2022-11-25T12:00:00.237Z,45.96
2022-11-25T12:02:40.761Z,46.78
2022-11-25T12:05:10.946Z,47.23
2022-11-25T12:07:40.577Z,48.98
2022-11-25T12:10:10.696Z,48.40
2022-11-25T12:13:00.995Z,49.21
2022-11-25T12:15:33.001Z,48.32
2022-11-25T12:18:05.229Z,46.60
2022-11-25T12:20:34.861Z,46.71
2022-11-25T12:23:01.891Z,46.47
2022-11-25T12:25:34.502Z,46.69
2022-11-25T12:28:03.822Z,46.60
2022-11-25T12:31:04.776Z,46.66
2022-11-25T12:33:35.432Z,46.91
2022-11-25T12:36:04.579Z,45.97
2022-11-25T12:38:38.868Z,45.66
2022-11-25T12:41:13.929Z,45.50
2022-11-25T12:43:40.977Z,44.95
2022-11-25T12:46:12.131Z,44.42
2022-11-25T12:48:40.409Z,45.88
2022-11-25T12:51:15.397Z,45.57
2022-11-25T12:53:59.081Z,45.51
2022-11-25T12:56:27.891Z,43.98
2022-11-25T12:59:30.939Z,45.65
2022-11-25T13:02:10.546Z,44.66
2022-11-25T13:04:41.108Z,44.12
2022-11-25T13:07:14.046Z,43.39
2022-11-25T13:09:59.978Z,43.97
2022-11-25T13:12:46.001Z,43.50
2022-11-25T13:15:27.136Z,44.40
2022-11-25T13:17:55.743Z,45.06
2022-11-25T13:20:29.193Z,44.40
2022-11-25T13:23:05.260Z,44.17
2022-11-25T13:25:32.956Z,45.07
2022-11-25T13:28:01.046Z,44.34
2022-11-25T13:30:34.207Z,45.07
2022-11-25T13:33:27.998Z,45.16
2022-11-25T13:35:55.912Z,44.35
2022-11-25T13:38:29.349Z,44.42
2022-11-25T13:40:57.597Z,45.11
2022-11-25T13:43:25.002Z,45.03
2022-11-25T13:45:52.229Z,44.77
2022-11-25T13:48:21.007Z,44.35
2022-11-25T13:51:10.035Z,45.02
2022-11-25T13:53:35.968Z,45.47
2022-11-25T13:56:32.506Z,44.50
2022-11-25T13:59:11.946Z,43.93
2022-11-25T14:01:45.282Z,43.44
2022-11-25T14:04:13.258Z,44.17
2022-11-25T14:06:51.143Z,44.90
2022-11-25T14:09:37.098Z,43.65
2022-11-25T14:12:27.082Z,44.24
2022-11-25T14:14:57.544Z,44.80
2022-11-25T14:17:25.036Z,43.72
2022-11-25T14:19:55.092Z,42.74
2022-11-25T14:22:35.808Z,43.16
2022-11-25T14:25:18.417Z,42.96
2022-11-25T14:27:46.864Z,43.47
2022-11-25T14:30:14.148Z,43.11
2022-11-25T14:32:45.682Z,43.09
2022-11-25T14:35:17.295Z,42.36
2022-11-25T14:37:45.509Z,42.83
2022-11-25T14:40:15.669Z,42.39
2022-11-25T14:42:43.939Z,42.40
2022-11-25T14:45:25.271Z,42.28
2022-11-25T14:47:52.691Z,42.16
2022-11-25T14:50:34.197Z,42.78
2022-11-25T14:53:05.465Z,42.01
2022-11-25T14:55:32.568Z,42.64
2022-11-25T14:57:59.659Z,42.04
2022-11-25T15:00:27.497Z,41.72
2022-11-25T15:02:58.991Z,41.43
2022-11-25T15:05:27.370Z,41.91
2022-11-25T15:07:57.513Z,42.25
2022-11-25T15:10:32.002Z,42.52
2022-11-25T15:12:59.740Z,41.84
2022-11-25T15:15:27.423Z,41.67
2022-11-25T15:17:55.274Z,41.68
2022-11-25T15:20:22.684Z,42.43
2022-11-25T15:22:51.151Z,42.35
2022-11-25T15:25:21.287Z,42.09
2022-11-25T15:27:51.015Z,41.82
2022-11-25T15:30:19.521Z,41.76
2022-11-25T15:32:46.635Z,41.74
2022-11-25T15:35:23.831Z,42.57
2022-11-25T15:37:51.032Z,42.19
2022-11-25T15:40:29.712Z,41.91
2022-11-25T15:42:59.938Z,41.81
2022-11-25T15:45:27.615Z,41.60
2022-11-25T15:47:55.708Z,41.34
2022-11-25T15:50:23.383Z,41.74
2022-11-25T15:52:51.742Z,41.44
2022-11-25T15:55:34.765Z,41.48
2022-11-25T15:58:06.331Z,41.60
2022-11-25T16:00:33.514Z,41.95
2022-11-25T16:03:00.911Z,41.67
2022-11-25T16:05:28.114Z,41.58
2022-11-25T16:07:55.305Z,41.52
2022-11-25T16:10:22.629Z,41.59
2022-11-25T16:13:08.378Z,41.87
2022-11-25T16:15:54.942Z,41.85
2022-11-25T16:18:41.051Z,42.19
2022-11-25T16:21:10.738Z,42.20
2022-11-25T16:23:39.417Z,42.07
2022-11-25T16:26:12.533Z,41.93
2022-11-25T16:28:49.418Z,41.82
2022-11-25T16:31:16.724Z,41.93
2022-11-25T16:33:44.190Z,41.66
2022-11-25T16:36:11.317Z,41.40
2022-11-25T16:38:38.725Z,41.89
2022-11-25T16:41:10.368Z,42.22
2022-11-25T16:43:39.310Z,42.52
2022-11-25T16:46:06.890Z,42.11
2022-11-25T16:48:34.306Z,41.67
2022-11-25T16:51:01.498Z,41.20
2022-11-25T16:53:29.151Z,41.31
2022-11-25T16:55:56.561Z,40.87
2022-11-25T16:58:26.909Z,40.99
2022-11-25T17:00:56.120Z,41.00
2022-11-25T17:03:26.414Z,40.59
2022-11-25T17:05:55.137Z,40.10
2022-11-25T17:08:23.105Z,39.84
2022-11-25T17:10:50.840Z,40.13
2022-11-25T17:13:20.011Z,40.74
2022-11-25T17:15:49.166Z,40.03
2022-11-25T17:18:18.651Z,40.19
2022-11-25T17:20:49.515Z,40.36
2022-11-25T17:23:17.259Z,40.19
2022-11-25T17:25:48.528Z,40.02
2022-11-25T17:28:19.529Z,40.01
2022-11-25T17:30:47.394Z,39.96
2022-11-25T17:33:15.971Z,40.72
2022-11-25T17:35:43.665Z,40.76
2022-11-25T17:38:15.703Z,41.16
2022-11-25T17:40:43.913Z,41.25
2022-11-25T17:43:18.056Z,40.99
2022-11-25T17:45:45.782Z,40.94
2022-11-25T17:48:13.910Z,41.02
2022-11-25T17:50:41.725Z,40.65
2022-11-25T17:53:09.536Z,41.38
2022-11-25T17:55:37.243Z,41.35
2022-11-25T17:58:04.917Z,41.26
2022-11-25T18:00:33.058Z,41.17
2022-11-25T18:03:01.106Z,41.07
2022-11-25T18:05:30.006Z,41.07
2022-11-25T18:07:57.498Z,41.32
2022-11-25T18:10:26.067Z,41.17
2022-11-25T18:12:53.980Z,41.15
2022-11-25T18:15:22.912Z,41.00
2022-11-25T18:17:51.069Z,41.12
2022-11-25T18:20:19.949Z,41.14
2022-11-25T18:22:47.465Z,41.02
2022-11-25T18:25:15.950Z,41.13
2022-11-25T18:27:43.726Z,41.47
2022-11-25T18:30:19.925Z,41.14
2022-11-25T18:32:48.069Z,41.14
2022-11-25T18:35:20.060Z,41.60
2022-11-25T18:37:48.189Z,41.85
2022-11-25T18:40:16.232Z,41.93
2022-11-25T18:42:44.989Z,41.84
2022-11-25T18:45:15.768Z,42.19
2022-11-25T18:47:43.220Z,41.95
2022-11-25T18:50:28.987Z,42.09
2022-11-25T18:52:57.079Z,42.00
2022-11-25T18:55:28.758Z,41.85
2022-11-25T18:57:56.566Z,41.85
2022-11-25T19:00:33.470Z,41.56
2022-11-25T19:03:01.138Z,41.76
2022-11-25T19:05:30.247Z,41.90
2022-11-25T19:07:58.623Z,41.83
2022-11-25T19:10:27.992Z,42.09
2022-11-25T19:13:00.327Z,42.29
2022-11-25T19:15:29.134Z,42.37
2022-11-25T19:18:00.767Z,42.62
2022-11-25T19:20:30.433Z,42.33
2022-11-25T19:23:01.107Z,42.20
2022-11-25T19:25:29.541Z,42.55
2022-11-25T19:27:57.544Z,43.26
2022-11-25T19:30:26.272Z,43.48
2022-11-25T19:32:55.217Z,45.47
2022-11-25T19:35:42.013Z,43.58
2022-11-25T19:38:18.233Z,43.29
2022-11-25T19:40:48.949Z,44.39
2022-11-25T19:43:22.453Z,45.11
2022-11-25T19:45:50.539Z,45.46
2022-11-25T19:48:21.481Z,46.48
2022-11-25T19:50:49.520Z,45.38
2022-11-25T19:53:17.893Z,44.60
2022-11-25T19:55:45.962Z,44.23
2022-11-25T19:58:16.928Z,43.85
2022-11-25T20:00:46.455Z,43.18
2022-11-25T20:03:25.073Z,43.78
2022-11-25T20:05:53.387Z,43.46
2022-11-25T20:08:25.517Z,43.03
2022-11-25T20:10:54.369Z,42.80
2022-11-25T20:13:26.703Z,42.70
2022-11-25T20:15:56.101Z,42.68
2022-11-25T20:18:24.635Z,42.17
2022-11-25T20:20:59.224Z,42.16
2022-11-25T20:23:29.705Z,41.99
2022-11-25T20:25:57.391Z,41.71
2022-11-25T20:28:26.087Z,41.53
2022-11-25T20:30:53.911Z,41.14
2022-11-25T20:33:24.690Z,41.40
2022-11-25T20:36:00.009Z,41.50
2022-11-25T20:38:27.841Z,41.46
2022-11-25T20:40:56.296Z,41.63
2022-11-25T20:43:27.147Z,41.14
2022-11-25T20:45:54.837Z,41.36
2022-11-25T20:48:24.633Z,41.06
2022-11-25T20:50:52.350Z,41.19
2022-11-25T20:53:21.142Z,41.26
2022-11-25T20:55:48.894Z,40.97
2022-11-25T20:58:26.228Z,40.91
2022-11-25T21:00:57.705Z,40.96
2022-11-25T21:03:26.028Z,41.04
2022-11-25T21:05:53.994Z,40.73
2022-11-25T21:08:27.650Z,40.71
2022-11-25T21:10:55.754Z,40.81
2022-11-25T21:13:24.241Z,40.95
2022-11-25T21:15:53.683Z,41.00
2022-11-25T21:18:21.413Z,41.29
2022-11-25T21:20:52.627Z,41.31
2022-11-25T21:23:22.938Z,41.07
2022-11-25T21:25:50.905Z,41.23
2022-11-25T21:28:21.000Z,41.44
2022-11-25T21:30:48.329Z,41.63
2022-11-25T21:33:16.205Z,41.52
2022-11-25T21:35:44.483Z,41.44
2022-11-25T21:38:15.427Z,41.51
2022-11-25T21:40:44.576Z,41.68
2022-11-25T21:43:21.287Z,41.77
2022-11-25T21:45:49.895Z,41.76
2022-11-25T21:48:20.897Z,41.80
2022-11-25T21:50:48.098Z,42.07
2022-11-25T21:53:15.554Z,43.89
2022-11-25T21:55:43.045Z,46.17
2022-11-25T21:58:12.859Z,44.17
2022-11-25T22:00:40.260Z,43.97
2022-11-25T22:03:10.541Z,43.57
2022-11-25T22:05:37.668Z,44.02
2022-11-25T22:08:04.894Z,43.29
2022-11-25T22:10:32.334Z,43.11
2022-11-25T22:12:59.450Z,43.15
2022-11-25T22:15:26.562Z,44.52
2022-11-25T22:17:54.940Z,45.35
2022-11-25T22:20:24.951Z,44.70
2022-11-25T22:22:52.112Z,44.19
2022-11-25T22:25:19.543Z,44.36
2022-11-25T22:27:46.873Z,43.93
2022-11-25T22:30:15.285Z,44.33
2022-11-25T22:32:42.673Z,44.59
2022-11-25T22:35:28.264Z,44.83
2022-11-25T22:37:55.795Z,44.68
2022-11-25T22:40:22.912Z,44.19
2022-11-25T22:42:50.314Z,44.47
2022-11-25T22:45:25.027Z,44.19
2022-11-25T22:47:52.207Z,44.04
2022-11-25T22:50:23.984Z,44.10
2022-11-25T22:52:51.464Z,44.05
2022-11-25T22:55:20.458Z,43.72
2022-11-25T22:57:48.277Z,43.56
2022-11-25T23:00:19.834Z,43.95
2022-11-25T23:02:47.081Z,44.50
2022-11-25T23:05:15.984Z,43.52
2022-11-25T23:07:43.362Z,43.77
2022-11-25T23:10:14.205Z,43.65
2022-11-25T23:12:41.706Z,43.78
2022-11-25T23:15:11.950Z,44.05
2022-11-25T23:17:39.043Z,43.42
2022-11-25T23:20:16.928Z,43.19
2022-11-25T23:22:44.031Z,43.22
2022-11-25T23:25:22.277Z,43.56
2022-11-25T23:27:49.355Z,43.62
2022-11-25T23:30:17.933Z,42.73
2022-11-25T23:32:45.245Z,43.05
2022-11-25T23:35:13.321Z,43.39
2022-11-25T23:37:40.708Z,43.40
2022-11-25T23:40:10.758Z,43.37
2022-11-25T23:42:37.859Z,43.78
2022-11-25T23:45:09.200Z,43.45
2022-11-25T23:47:36.306Z,43.20
2022-11-25T23:50:03.431Z,43.08
2022-11-25T23:52:30.824Z,42.89
2022-11-25T23:54:57.928Z,43.77
2022-11-25T23:57:26.629Z,44.08
2022-11-25T23:59:54.162Z,43.51
